createdAt,value
2018-07-15T00:02:55.802Z,93.12
2018-07-15T00:06:00.246Z,93.08
2018-07-15T00:09:05.756Z,93.06
2018-07-15T00:12:10.108Z,93.54
2018-07-15T00:15:14.524Z,93.26
2018-07-15T00:18:19.011Z,93.71
2018-07-15T00:21:23.351Z,92.87
2018-07-15T00:24:27.811Z,93.68
2018-07-15T00:27:32.205Z,94.14
2018-07-15T00:30:36.691Z,94.19
2018-07-15T00:33:41.153Z,94.80
2018-07-15T00:36:45.632Z,95.01
2018-07-15T00:39:50.036Z,94.70
2018-07-15T00:42:54.445Z,94.76
2018-07-15T00:45:58.997Z,94.86
2018-07-15T00:49:03.462Z,95.00
2018-07-15T00:52:08.015Z,94.56
2018-07-15T00:55:12.434Z,94.78
2018-07-15T00:58:16.842Z,95.23
2018-07-15T01:01:21.186Z,94.87
2018-07-15T01:04:25.557Z,94.77
2018-07-15T01:07:29.910Z,95.16
2018-07-15T01:10:34.475Z,95.40
2018-07-15T01:13:38.900Z,95.25
2018-07-15T01:16:43.409Z,95.41
2018-07-15T01:19:47.888Z,95.33
2018-07-15T01:22:52.480Z,95.67
2018-07-15T01:25:59.073Z,95.62
2018-07-15T01:29:03.450Z,95.57
2018-07-15T01:32:07.837Z,95.39
2018-07-15T01:35:12.245Z,95.70
2018-07-15T01:38:16.828Z,95.61
2018-07-15T01:41:21.184Z,95.78
2018-07-15T01:44:25.727Z,96.03
2018-07-15T01:47:30.311Z,95.93
2018-07-15T01:50:34.654Z,96.16
2018-07-15T01:53:39.259Z,96.03
2018-07-15T01:56:43.846Z,96.17
2018-07-15T01:59:48.301Z,95.68
2018-07-15T02:02:52.840Z,95.91
2018-07-15T02:05:57.425Z,96.02
2018-07-15T02:09:02.029Z,96.09
2018-07-15T02:12:06.475Z,95.83
2018-07-15T02:15:10.859Z,96.08
2018-07-15T02:18:15.476Z,95.83
2018-07-15T02:21:19.893Z,96.17
2018-07-15T02:24:24.212Z,96.15
2018-07-15T02:27:28.755Z,96.22
2018-07-15T02:30:33.151Z,96.27
2018-07-15T02:33:37.672Z,96.56
2018-07-15T02:36:42.042Z,96.58
2018-07-15T02:39:46.589Z,96.96
2018-07-15T02:42:51.068Z,97.31
2018-07-15T02:45:55.775Z,97.31
2018-07-15T02:49:00.424Z,97.90
2018-07-15T02:52:05.122Z,97.89
2018-07-15T02:55:09.767Z,97.48
2018-07-15T02:58:14.369Z,98.05
2018-07-15T03:01:19.230Z,97.82
2018-07-15T03:04:24.271Z,97.65
2018-07-15T03:07:28.947Z,97.91
2018-07-15T03:10:33.550Z,97.84
2018-07-15T03:13:38.474Z,98.09
2018-07-15T03:16:43.272Z,98.10
2018-07-15T03:19:47.877Z,97.57
2018-07-15T03:22:52.612Z,97.21
2018-07-15T03:25:57.037Z,97.52
2018-07-15T03:29:01.377Z,97.57
2018-07-15T03:32:05.780Z,97.91
2018-07-15T03:35:10.331Z,97.63
2018-07-15T03:38:14.925Z,97.54
2018-07-15T03:41:19.617Z,96.38
2018-07-15T03:44:24.316Z,96.21
2018-07-15T03:47:28.873Z,95.23
2018-07-15T03:50:33.466Z,94.51
2018-07-15T03:53:38.034Z,93.59
2018-07-15T03:56:42.637Z,92.32
2018-07-15T03:59:47.048Z,92.20
2018-07-15T04:02:51.563Z,91.37
2018-07-15T04:05:56.126Z,91.08
2018-07-15T04:09:00.864Z,91.41
2018-07-15T04:12:05.447Z,91.50
2018-07-15T04:15:09.986Z,92.31
2018-07-15T04:18:14.641Z,93.40
2018-07-15T04:21:19.267Z,94.41
2018-07-15T04:24:24.043Z,94.21
2018-07-15T04:27:28.778Z,94.79
2018-07-15T04:30:33.913Z,95.33
2018-07-15T04:33:38.490Z,95.54
2018-07-15T04:36:43.392Z,95.92
2018-07-15T04:39:47.990Z,95.89
2018-07-15T04:42:52.577Z,95.71
2018-07-15T04:45:57.255Z,95.56
2018-07-15T04:49:02.054Z,95.29
2018-07-15T04:52:06.713Z,95.02
2018-07-15T04:55:11.232Z,95.04
2018-07-15T04:58:15.701Z,95.03
2018-07-15T05:01:20.093Z,95.40
2018-07-15T05:04:24.530Z,94.78
2018-07-15T05:07:28.949Z,94.81
2018-07-15T05:10:33.674Z,95.06
2018-07-15T05:13:38.216Z,94.79
2018-07-15T05:16:43.313Z,94.65
2018-07-15T05:19:48.758Z,94.03
2018-07-15T05:22:54.224Z,93.35
2018-07-15T05:26:00.023Z,93.60
2018-07-15T05:29:05.377Z,93.82
2018-07-15T05:32:10.313Z,93.00
2018-07-15T05:35:15.365Z,93.15
2018-07-15T05:38:20.402Z,91.71
2018-07-15T05:41:24.823Z,92.27
2018-07-15T05:44:30.161Z,92.69
2018-07-15T05:47:35.391Z,93.25
2018-07-15T05:50:40.347Z,92.89
2018-07-15T05:53:45.766Z,92.83
2018-07-15T05:56:50.680Z,91.73
2018-07-15T05:59:55.837Z,92.05
2018-07-15T06:03:01.178Z,91.70
2018-07-15T06:06:06.348Z,91.32
2018-07-15T06:09:11.263Z,90.64
2018-07-15T06:12:16.211Z,90.41
2018-07-15T06:15:21.080Z,90.28
2018-07-15T06:18:27.231Z,89.75
2018-07-15T06:21:32.147Z,89.21
2018-07-15T06:24:37.083Z,87.79
2018-07-15T06:27:41.928Z,87.62
2018-07-15T06:30:47.696Z,86.61
2018-07-15T06:33:52.409Z,85.92
2018-07-15T06:36:57.367Z,85.32
2018-07-15T06:40:02.023Z,83.73
2018-07-15T06:43:07.716Z,82.33
2018-07-15T06:46:12.534Z,82.24
2018-07-15T06:49:17.420Z,81.02
2018-07-15T06:52:22.192Z,79.90
2018-07-15T06:55:27.252Z,77.97
2018-07-15T06:58:31.838Z,77.22
2018-07-15T07:01:36.741Z,76.33
2018-07-15T07:04:41.655Z,75.26
2018-07-15T07:07:46.580Z,73.78
2018-07-15T07:10:51.406Z,72.37
2018-07-15T07:13:55.919Z,70.90
2018-07-15T07:17:00.813Z,70.16
2018-07-15T07:20:05.473Z,69.35
2018-07-15T07:23:10.529Z,68.70
2018-07-15T07:26:15.691Z,68.09
2018-07-15T07:29:20.568Z,67.75
2018-07-15T07:32:25.664Z,67.62
2018-07-15T07:35:30.452Z,66.80
2018-07-15T07:38:35.165Z,67.68
2018-07-15T07:41:39.753Z,67.11
2018-07-15T07:44:44.603Z,66.41
2018-07-15T07:47:49.456Z,65.35
2018-07-15T07:50:53.973Z,66.11
2018-07-15T07:53:58.498Z,65.13
2018-07-15T07:57:03.098Z,63.54
2018-07-15T08:00:07.998Z,64.17
2018-07-15T08:03:13.734Z,62.97
2018-07-15T08:06:18.162Z,63.44
2018-07-15T08:09:22.706Z,63.57
2018-07-15T08:12:27.303Z,61.68
2018-07-15T08:15:32.231Z,61.96
2018-07-15T08:18:37.073Z,61.43
2018-07-15T08:21:41.391Z,61.64
2018-07-15T08:24:46.233Z,61.21
2018-07-15T08:27:51.317Z,61.17
2018-07-15T08:31:12.168Z,60.74
2018-07-15T08:34:16.856Z,60.62
2018-07-15T08:37:21.469Z,61.00
2018-07-15T08:40:25.925Z,60.06
2018-07-15T08:43:30.620Z,61.04
2018-07-15T08:46:35.829Z,61.92
2018-07-15T08:49:40.693Z,60.74
2018-07-15T08:52:46.031Z,60.95
2018-07-15T08:55:50.476Z,60.88
2018-07-15T08:58:55.371Z,61.26
2018-07-15T09:01:59.778Z,61.89
2018-07-15T09:05:04.415Z,62.52
2018-07-15T09:08:09.150Z,61.06
2018-07-15T09:11:13.535Z,61.09
2018-07-15T09:14:17.941Z,59.36
2018-07-15T09:17:22.331Z,59.52
2018-07-15T09:20:26.972Z,59.09
2018-07-15T09:23:31.657Z,58.04
2018-07-15T09:26:36.425Z,58.55
2018-07-15T09:29:41.482Z,57.79
2018-07-15T09:32:46.157Z,57.33
2018-07-15T09:35:50.544Z,57.37
2018-07-15T09:38:55.096Z,55.82
2018-07-15T09:41:59.625Z,55.67
2018-07-15T09:45:04.180Z,55.78
2018-07-15T09:48:08.577Z,56.20
2018-07-15T09:51:13.209Z,55.32
2018-07-15T09:54:17.587Z,55.08
2018-07-15T09:57:21.953Z,55.38
2018-07-15T10:00:31.849Z,54.50
2018-07-15T10:03:36.347Z,53.61
2018-07-15T10:06:40.792Z,53.87
2018-07-15T10:09:45.453Z,52.87
2018-07-15T10:12:49.849Z,54.17
2018-07-15T10:15:54.314Z,53.61
2018-07-15T10:18:58.716Z,52.52
2018-07-15T10:22:03.130Z,52.68
2018-07-15T10:25:07.833Z,51.75
2018-07-15T10:28:12.375Z,51.87
2018-07-15T10:31:16.665Z,49.92
2018-07-15T10:34:21.297Z,50.71
2018-07-15T10:37:25.739Z,51.45
2018-07-15T10:40:30.206Z,50.97
2018-07-15T10:43:34.631Z,50.69
2018-07-15T10:46:39.010Z,50.68
2018-07-15T10:49:43.425Z,51.21
2018-07-15T10:52:47.878Z,50.77
2018-07-15T10:55:52.108Z,50.07
2018-07-15T10:58:56.462Z,48.92
2018-07-15T11:02:00.923Z,48.84
2018-07-15T11:05:06.040Z,48.04
2018-07-15T11:08:10.509Z,47.27
2018-07-15T11:11:14.905Z,47.44
2018-07-15T11:14:19.561Z,47.90
2018-07-15T11:17:24.139Z,49.11
2018-07-15T11:20:28.569Z,48.36
2018-07-15T11:23:32.959Z,47.93
2018-07-15T11:26:37.841Z,47.02
2018-07-15T11:29:42.593Z,46.73
2018-07-15T11:32:47.082Z,46.55
2018-07-15T11:35:51.442Z,46.96
2018-07-15T11:38:55.881Z,45.13
2018-07-15T11:42:00.466Z,46.89
2018-07-15T11:45:04.815Z,44.87
2018-07-15T11:48:09.207Z,44.09
2018-07-15T11:51:13.695Z,43.90
2018-07-15T11:54:18.170Z,46.03
2018-07-15T11:57:22.651Z,44.65
2018-07-15T12:00:27.129Z,44.88
2018-07-15T12:03:31.475Z,44.33
2018-07-15T12:06:36.159Z,44.16
2018-07-15T12:09:40.565Z,42.77
2018-07-15T12:12:44.900Z,41.90
2018-07-15T12:15:49.304Z,41.83
2018-07-15T12:18:53.705Z,41.88
2018-07-15T12:21:58.228Z,41.76
2018-07-15T12:25:02.790Z,42.26
2018-07-15T12:28:07.189Z,41.64
2018-07-15T12:31:11.636Z,42.24
2018-07-15T12:34:15.998Z,41.51
2018-07-15T12:37:20.310Z,41.02
2018-07-15T12:40:24.765Z,40.12
2018-07-15T12:43:29.235Z,41.12
2018-07-15T12:46:33.725Z,40.45
2018-07-15T12:49:38.065Z,41.49
2018-07-15T12:52:42.495Z,40.58
2018-07-15T12:55:47.045Z,41.11
2018-07-15T12:58:51.516Z,41.77
2018-07-15T13:01:55.751Z,41.37
2018-07-15T13:05:00.131Z,40.44
2018-07-15T13:08:04.403Z,41.36
2018-07-15T13:11:08.471Z,42.28
2018-07-15T13:14:12.853Z,40.68
2018-07-15T13:17:17.192Z,41.31
2018-07-15T13:20:21.631Z,40.61
2018-07-15T13:23:26.047Z,41.00
2018-07-15T13:26:30.669Z,41.16
2018-07-15T13:29:35.072Z,41.01
2018-07-15T13:32:39.494Z,41.57
2018-07-15T13:35:43.886Z,40.24
2018-07-15T13:38:47.953Z,40.26
2018-07-15T13:41:53.447Z,39.53
2018-07-15T13:44:57.896Z,40.18
2018-07-15T13:48:02.345Z,40.09
2018-07-15T13:51:06.881Z,39.90
2018-07-15T13:54:11.361Z,40.58
2018-07-15T13:57:15.754Z,40.88
2018-07-15T14:00:20.125Z,39.37
2018-07-15T14:03:24.618Z,38.77
2018-07-15T14:06:28.748Z,40.15
2018-07-15T14:09:33.151Z,39.13
2018-07-15T14:12:37.310Z,38.38
2018-07-15T14:15:41.585Z,38.84
2018-07-15T14:18:45.903Z,38.28
2018-07-15T14:21:50.431Z,38.45
2018-07-15T14:24:54.748Z,38.43
2018-07-15T14:27:59.079Z,38.52
2018-07-15T14:31:03.439Z,39.44
2018-07-15T14:34:07.855Z,39.10
2018-07-15T14:37:12.175Z,38.75
2018-07-15T14:40:16.652Z,39.20
2018-07-15T14:43:21.100Z,38.90
2018-07-15T14:46:25.526Z,39.76
2018-07-15T14:49:30.144Z,38.69
2018-07-15T14:52:34.537Z,38.16
2018-07-15T14:55:39.663Z,38.37
2018-07-15T14:58:44.010Z,39.24
2018-07-15T15:01:48.403Z,39.48
2018-07-15T15:04:52.991Z,38.20
2018-07-15T15:07:57.380Z,38.84
2018-07-15T15:11:01.893Z,38.75
2018-07-15T15:14:06.299Z,38.76
2018-07-15T15:17:10.650Z,37.77
2018-07-15T15:20:14.966Z,38.00
2018-07-15T15:23:19.250Z,37.08
2018-07-15T15:26:23.868Z,37.07
2018-07-15T15:29:29.143Z,36.70
2018-07-15T15:32:33.459Z,35.58
2018-07-15T15:35:37.858Z,35.51
2018-07-15T15:38:42.236Z,34.94
2018-07-15T15:41:46.641Z,34.78
2018-07-15T15:44:51.070Z,32.84
2018-07-15T15:47:55.757Z,34.42
2018-07-15T15:51:00.162Z,34.08
2018-07-15T15:54:04.651Z,34.96
2018-07-15T15:57:08.946Z,33.87
2018-07-15T16:00:13.251Z,33.53
2018-07-15T16:03:17.776Z,33.59
2018-07-15T16:06:22.126Z,32.83
2018-07-15T16:09:26.510Z,33.74
2018-07-15T16:12:31.007Z,34.16
2018-07-15T16:15:35.385Z,33.75
2018-07-15T16:18:39.721Z,33.35
2018-07-15T16:21:44.213Z,33.81
2018-07-15T16:24:48.492Z,33.29
2018-07-15T16:27:52.774Z,32.85
2018-07-15T16:30:57.178Z,32.51
2018-07-15T16:34:01.578Z,31.30
2018-07-15T16:37:06.158Z,32.92
2018-07-15T16:40:10.487Z,32.46
2018-07-15T16:43:14.869Z,32.11
2018-07-15T16:46:19.225Z,31.90
2018-07-15T16:49:23.728Z,32.38
2018-07-15T16:52:28.066Z,32.01
2018-07-15T16:55:32.433Z,32.92
2018-07-15T16:58:36.779Z,32.15
2018-07-15T17:01:41.289Z,32.21
2018-07-15T17:04:45.576Z,31.40
2018-07-15T17:07:49.976Z,32.17
2018-07-15T17:10:54.407Z,33.62
2018-07-15T17:13:58.743Z,33.58
2018-07-15T17:17:03.277Z,32.94
2018-07-15T17:20:07.722Z,32.96
2018-07-15T17:23:12.260Z,35.12
2018-07-15T17:26:16.804Z,36.66
2018-07-15T17:29:21.118Z,39.56
2018-07-15T17:32:25.554Z,41.04
2018-07-15T17:35:29.986Z,43.82
2018-07-15T17:38:34.360Z,43.98
2018-07-15T17:41:39.027Z,45.55
2018-07-15T17:44:43.278Z,46.16
2018-07-15T17:47:47.701Z,46.78
2018-07-15T17:50:52.042Z,47.29
2018-07-15T17:53:56.704Z,48.16
2018-07-15T17:57:01.279Z,47.71
2018-07-15T18:00:06.167Z,48.91
2018-07-15T18:03:10.552Z,49.27
2018-07-15T18:06:14.910Z,49.96
2018-07-15T18:09:19.342Z,50.19
2018-07-15T18:12:23.706Z,50.56
2018-07-15T18:15:28.505Z,51.52
2018-07-15T18:18:33.206Z,51.84
2018-07-15T18:21:37.671Z,51.75
2018-07-15T18:24:41.943Z,52.17
2018-07-15T18:27:46.488Z,52.35
2018-07-15T18:30:51.118Z,51.81
2018-07-15T18:33:55.430Z,52.24
2018-07-15T18:36:59.896Z,52.52
2018-07-15T18:40:04.884Z,53.16
2018-07-15T18:43:09.427Z,53.59
2018-07-15T18:46:13.821Z,52.66
2018-07-15T18:49:18.360Z,53.49
2018-07-15T18:52:22.752Z,53.93
2018-07-15T18:55:27.207Z,53.93
2018-07-15T18:58:31.692Z,54.66
2018-07-15T19:01:36.099Z,54.64
2018-07-15T19:04:40.551Z,54.91
2018-07-15T19:07:45.054Z,55.83
2018-07-15T19:10:49.543Z,55.59
2018-07-15T19:13:54.027Z,56.06
2018-07-15T19:16:58.872Z,56.15
2018-07-15T19:20:03.137Z,56.77
2018-07-15T19:23:07.638Z,56.73
2018-07-15T19:26:12.148Z,57.08
2018-07-15T19:29:16.539Z,57.67
2018-07-15T19:32:21.013Z,57.92
2018-07-15T19:35:25.175Z,58.50
2018-07-15T19:38:29.719Z,59.36
2018-07-15T19:41:34.164Z,59.57
2018-07-15T19:44:38.587Z,59.58
2018-07-15T19:47:43.263Z,59.94
2018-07-15T19:50:47.729Z,59.71
2018-07-15T19:53:52.226Z,60.54
2018-07-15T19:56:56.678Z,60.88
2018-07-15T20:00:01.175Z,60.80
2018-07-15T20:03:05.663Z,61.43
2018-07-15T20:06:11.306Z,62.82
2018-07-15T20:09:15.768Z,62.40
2018-07-15T20:12:20.222Z,62.77
2018-07-15T20:15:25.594Z,62.52
2018-07-15T20:18:30.149Z,63.29
2018-07-15T20:21:34.541Z,63.06
2018-07-15T20:24:38.961Z,63.44
2018-07-15T20:27:43.662Z,64.34
2018-07-15T20:30:48.237Z,64.75
2018-07-15T20:33:52.664Z,64.32
2018-07-15T20:36:57.158Z,65.03
2018-07-15T20:40:01.635Z,64.59
2018-07-15T20:43:06.012Z,64.51
2018-07-15T20:46:10.531Z,64.82
2018-07-15T20:49:15.033Z,64.35
2018-07-15T20:52:19.522Z,64.71
2018-07-15T20:55:23.907Z,64.80
2018-07-15T20:58:28.502Z,64.50
2018-07-15T21:01:32.913Z,63.74
2018-07-15T21:04:37.278Z,64.03
2018-07-15T21:07:41.825Z,63.92
2018-07-15T21:10:46.256Z,64.96
2018-07-15T21:13:50.640Z,64.07
2018-07-15T21:16:55.028Z,64.72
2018-07-15T21:19:59.545Z,64.84
2018-07-15T21:23:03.941Z,65.31
2018-07-15T21:26:08.398Z,65.87
2018-07-15T21:29:12.763Z,66.19
2018-07-15T21:32:17.301Z,66.35
2018-07-15T21:35:21.642Z,67.01
2018-07-15T21:38:26.020Z,67.62
2018-07-15T21:41:30.408Z,67.58
2018-07-15T21:44:34.911Z,67.81
2018-07-15T21:47:39.272Z,67.74
2018-07-15T21:50:43.706Z,67.83
2018-07-15T21:53:48.065Z,68.56
2018-07-15T21:56:52.407Z,69.12
2018-07-15T21:59:56.807Z,69.12
2018-07-15T22:03:01.182Z,69.04
2018-07-15T22:06:05.926Z,69.67
2018-07-15T22:09:28.074Z,70.11
2018-07-15T22:12:32.455Z,70.13
2018-07-15T22:15:36.877Z,71.05
2018-07-15T22:18:41.221Z,71.16
2018-07-15T22:21:45.784Z,71.30
2018-07-15T22:24:50.154Z,71.69
2018-07-15T22:27:54.668Z,72.63
2018-07-15T22:30:59.066Z,72.97
2018-07-15T22:34:03.422Z,73.28
2018-07-15T22:37:07.822Z,73.11
2018-07-15T22:40:12.149Z,73.64
2018-07-15T22:43:16.577Z,73.86
2018-07-15T22:46:20.988Z,74.19
2018-07-15T22:49:25.428Z,74.33
2018-07-15T22:52:30.068Z,75.29
2018-07-15T22:55:34.481Z,75.12
2018-07-15T22:58:38.916Z,75.70
2018-07-15T23:01:43.408Z,75.32
2018-07-15T23:06:02.707Z,75.72
2018-07-15T23:09:08.089Z,76.91
2018-07-15T23:12:12.481Z,76.75
2018-07-15T23:15:16.884Z,76.51
2018-07-15T23:18:21.437Z,77.33
2018-07-15T23:21:25.876Z,77.36
2018-07-15T23:24:30.226Z,77.90
2018-07-15T23:27:34.585Z,77.97
2018-07-15T23:30:39.629Z,78.34
2018-07-15T23:33:44.055Z,78.35
2018-07-15T23:36:48.428Z,78.23
2018-07-15T23:39:52.951Z,78.57
2018-07-15T23:42:57.992Z,78.44
2018-07-15T23:46:02.629Z,78.91
2018-07-15T23:49:07.028Z,78.94
2018-07-15T23:52:11.517Z,77.76
2018-07-15T23:55:16.136Z,78.56
2018-07-15T23:58:20.503Z,79.02
